Time;durP1;ratioP1;P1;durP2;ratioP2;P2;SDS_P1;SDS_P2;PMS_P1;PMS_P2;Temp;Humidity;BMP_temperature;BMP_pressure;BME280_temperature;BME280_humidity;BME280_pressure;Samples;Min_cycle;Max_cycle;Signal;HPM_P1;HPM_P2
2020/12/08 00:01:31;;;;;;;1.90;1.80;;;;;;;18.46;48.48;99578.38;5051704;28;20180;-73
2020/12/08 00:03:57;;;;;;;1.90;1.80;;;;;;;18.44;48.17;99576.88;5037227;28;20184;-73
2020/12/08 00:06:23;;;;;;;1.87;1.77;;;;;;;18.35;47.98;99581.59;5037052;28;20192;-73
2020/12/08 00:08:49;;;;;;;2.13;2.03;;;;;;;18.29;48.52;99582.38;5053145;28;20200;-74
2020/12/08 00:11:16;;;;;;;1.80;1.70;;;;;;;18.23;48.70;99575.03;5052557;28;20191;-74
2020/12/08 00:13:44;;;;;;;1.80;1.70;;;;;;;18.23;48.39;99578.59;5036174;28;20185;-73
2020/12/08 00:16:11;;;;;;;1.73;1.63;;;;;;;18.25;48.48;99570.25;5035934;28;20224;-73
2020/12/08 00:18:37;;;;;;;1.80;1.70;;;;;;;18.25;48.69;99565.69;5035847;28;20266;-73
2020/12/08 00:21:03;;;;;;;1.60;1.50;;;;;;;18.26;48.64;99569.22;5052807;28;20593;-73
2020/12/08 00:23:29;;;;;;;2.03;1.87;;;;;;;18.27;48.22;99573.63;5052572;28;20208;-72
2020/12/08 00:25:55;;;;;;;1.87;1.77;;;;;;;18.27;48.75;99565.50;5052179;28;20191;-74
2020/12/08 00:28:21;;;;;;;1.80;1.70;;;;;;;18.25;48.68;99565.69;5052436;28;20231;-73
2020/12/08 00:30:48;;;;;;;1.60;1.50;;;;;;;18.25;48.75;99562.13;5052158;28;20241;-72
2020/12/08 00:33:14;;;;;;;1.87;1.77;;;;;;;18.24;48.39;99561.31;5052266;28;20188;-73
2020/12/08 00:35:40;;;;;;;1.47;1.43;;;;;;;18.25;48.79;99562.97;5052099;28;20510;-74
2020/12/08 00:38:06;;;;;;;1.70;1.60;;;;;;;18.24;48.74;99560.47;5052016;28;20227;-73
2020/12/08 00:40:32;;;;;;;1.97;1.87;;;;;;;18.25;48.45;99556.72;5052024;28;20188;-74
2020/12/08 00:42:58;;;;;;;1.80;1.70;;;;;;;18.26;48.82;99561.94;5035357;28;20642;-74
2020/12/08 00:45:24;;;;;;;2.10;2.00;;;;;;;18.25;48.94;99559.44;5035268;28;20207;-73
2020/12/08 00:47:50;;;;;;;1.70;1.60;;;;;;;18.24;48.39;99553.19;5051875;28;20290;-73
2020/12/08 00:50:16;;;;;;;2.07;1.97;;;;;;;18.22;48.95;99560.66;5051412;28;20236;-74
2020/12/08 00:52:42;;;;;;;2.03;1.90;;;;;;;18.19;48.74;99552.06;5035049;28;20605;-73
2020/12/08 00:55:08;;;;;;;2.00;1.90;;;;;;;18.18;48.91;99558.50;5051694;28;20184;-71
2020/12/08 00:57:34;;;;;;;1.80;1.70;;;;;;;18.17;48.82;99556.84;5051658;28;20676;-71
2020/12/08 01:00:01;;;;;;;1.90;1.80;;;;;;;18.13;48.63;99555.53;5051674;28;20632;-71
2020/12/08 01:02:27;;;;;;;1.90;1.80;;;;;;;18.10;48.76;99554.91;5051745;28;20639;-71
2020/12/08 01:04:53;;;;;;;1.77;1.67;;;;;;;18.07;48.53;99554.47;5051616;28;20172;-70
2020/12/08 01:07:19;;;;;;;1.90;1.80;;;;;;;18.03;48.80;99559.44;5051428;28;20219;-70
2020/12/08 01:09:45;;;;;;;1.73;1.63;;;;;;;18.03;48.78;99564.00;5051471;28;20207;-71
2020/12/08 01:12:11;;;;;;;1.83;1.73;;;;;;;18.03;48.40;99564.00;5050909;28;20588;-70
2020/12/08 01:14:37;;;;;;;2.23;2.03;;;;;;;18.01;49.20;99556.06;5034779;28;20272;-71
2020/12/08 01:17:04;;;;;;;2.00;1.90;;;;;;;18.04;49.05;99561.09;5051229;28;20265;-70
2020/12/08 01:19:30;;;;;;;2.03;1.93;;;;;;;18.13;48.52;99560.97;5051351;28;20532;-71
2020/12/08 01:21:56;;;;;;;1.80;1.70;;;;;;;18.20;48.71;99560.00;5051352;28;20188;-70
2020/12/08 01:24:22;;;;;;;2.00;1.90;;;;;;;18.30;48.63;99565.09;5051493;28;20187;-73
2020/12/08 01:26:48;;;;;;;1.83;1.73;;;;;;;18.38;48.68;99568.50;5051342;28;20176;-73
2020/12/08 01:29:14;;;;;;;1.90;1.80;;;;;;;18.46;48.49;99564.84;5051052;28;20567;-73
2020/12/08 01:31:40;;;;;;;1.83;1.73;;;;;;;18.55;48.28;99562.81;5034395;28;20188;-72
2020/12/08 01:34:09;;;;;;;1.90;1.80;;;;;;;18.63;48.34;99565.41;5050858;28;20279;-72
2020/12/08 01:36:36;;;;;;;2.00;1.90;;;;;;;18.68;48.55;99568.34;5050874;28;20226;-73
2020/12/08 01:39:02;;;;;;;1.83;1.73;;;;;;;18.71;48.15;99567.97;5034183;28;20523;-73
2020/12/08 01:41:28;;;;;;;1.83;1.73;;;;;;;18.75;48.07;99568.44;5034240;28;20176;-74
2020/12/08 01:43:54;;;;;;;2.00;1.90;;;;;;;18.77;48.01;99569.06;5034193;28;20181;-74
2020/12/08 01:46:23;;;;;;;1.87;1.77;;;;;;;18.77;47.96;99571.78;5034099;28;20176;-73
2020/12/08 01:48:49;;;;;;;1.93;1.83;;;;;;;18.76;47.96;99564.69;5050581;28;20560;-74
2020/12/08 01:51:16;;;;;;;1.90;1.80;;;;;;;18.75;48.10;99571.97;5050514;28;20188;-72
2020/12/08 01:53:49;;;;;;;1.93;1.83;;;;;;;18.70;48.13;99567.16;5033790;28;20265;-73
2020/12/08 01:56:15;;;;;;;2.00;1.90;;;;;;;18.69;47.80;99575.44;5051553;28;20758;-72
2020/12/08 01:58:41;;;;;;;2.13;2.03;;;;;;;18.63;48.14;99573.53;5050485;28;20454;-73
2020/12/08 02:01:10;;;;;;;1.80;1.70;;;;;;;18.56;48.05;99578.88;5051472;28;20192;-72
2020/12/08 02:03:36;;;;;;;2.10;2.00;;;;;;;18.53;48.11;99581.97;5033843;28;20190;-72
2020/12/08 02:06:02;;;;;;;2.00;1.90;;;;;;;18.50;47.99;99579.66;5050479;28;20282;-70
2020/12/08 02:08:32;;;;;;;1.90;1.80;;;;;;;18.42;48.18;99580.63;5050317;28;20192;-70
2020/12/08 02:10:58;;;;;;;1.90;1.80;;;;;;;18.37;48.41;99574.13;5050907;28;20621;-70
2020/12/08 02:13:24;;;;;;;2.00;1.90;;;;;;;18.32;48.34;99576.56;5050424;28;20192;-70
2020/12/08 02:15:50;;;;;;;2.10;1.90;;;;;;;18.25;47.97;99572.97;5051011;28;20181;-70
2020/12/08 02:18:16;;;;;;;2.00;1.90;;;;;;;18.20;48.17;99580.81;5050065;28;20208;-73
2020/12/08 02:20:42;;;;;;;1.93;1.83;;;;;;;18.20;48.24;99570.81;5033370;28;20188;-72
2020/12/08 02:23:08;;;;;;;2.00;1.90;;;;;;;18.25;48.25;99578.38;5033228;28;20742;-72
2020/12/08 02:25:35;;;;;;;2.10;2.00;;;;;;;18.25;48.07;99575.69;5049421;28;20259;-72
2020/12/08 02:28:01;;;;;;;2.17;2.07;;;;;;;18.28;47.87;99580.72;5033479;28;20224;-72
2020/12/08 02:30:27;;;;;;;1.90;1.80;;;;;;;18.25;48.06;99572.97;5050023;28;20198;-72
2020/12/08 02:32:53;;;;;;;1.97;1.87;;;;;;;18.25;48.24;99572.97;5049816;28;20490;-72
2020/12/08 02:35:19;;;;;;;1.70;1.60;;;;;;;18.24;48.25;99568.59;5053147;28;20194;-72
2020/12/08 02:37:45;;;;;;;2.00;1.90;;;;;;;18.23;48.28;99572.34;5069526;28;20310;-73
2020/12/08 02:40:11;;;;;;;2.10;2.00;;;;;;;18.25;48.34;99578.38;5053245;28;20595;-72
2020/12/08 02:42:37;;;;;;;1.87;1.77;;;;;;;18.23;48.38;99575.03;5053181;28;20180;-72
2020/12/08 02:45:04;;;;;;;1.83;1.73;;;;;;;18.23;48.69;99575.88;5070590;28;20198;-72
2020/12/08 02:47:30;;;;;;;1.97;1.87;;;;;;;18.24;48.32;99579.41;5053117;28;20249;-70
2020/12/08 02:49:56;;;;;;;2.10;2.00;;;;;;;18.23;48.12;99575.03;5053206;28;20184;-72
2020/12/08 02:52:23;;;;;;;2.20;2.10;;;;;;;18.23;48.90;99573.16;5053057;28;20195;-71
2020/12/08 02:54:49;;;;;;;1.80;1.70;;;;;;;18.22;48.64;99576.91;5036576;28;20186;-71
2020/12/08 02:57:15;;;;;;;2.00;1.90;;;;;;;18.22;49.06;99578.78;5052969;28;20211;-70
2020/12/08 02:59:41;;;;;;;2.10;2.00;;;;;;;18.23;48.72;99573.16;5052665;28;20620;-71
2020/12/08 03:02:07;;;;;;;1.80;1.70;;;;;;;18.26;48.16;99583.63;5069636;28;20194;-70
2020/12/08 03:04:33;;;;;;;2.10;2.00;;;;;;;18.31;48.70;99583.03;5053032;28;20187;-70
2020/12/08 03:06:59;;;;;;;1.77;1.67;;;;;;;18.37;48.73;99582.25;5069550;28;20176;-71
2020/12/08 03:09:27;;;;;;;2.00;1.90;;;;;;;18.41;48.37;99589.78;5036467;28;20693;-72
2020/12/08 03:11:53;;;;;;;2.03;1.93;;;;;;;18.45;48.26;99587.50;5053144;28;20190;-71
2020/12/08 03:14:19;;;;;;;2.10;2.00;;;;;;;18.49;48.47;99590.69;5069403;28;20183;-72
2020/12/08 03:16:45;;;;;;;1.97;1.87;;;;;;;18.50;48.24;99585.09;5069246;28;20298;-73
2020/12/08 03:19:11;;;;;;;2.20;2.10;;;;;;;18.51;48.41;99585.91;5035932;28;20208;-70
2020/12/08 03:21:38;;;;;;;1.90;1.80;;;;;;;18.50;48.31;99587.78;5036319;28;20180;-72
2020/12/08 03:24:04;;;;;;;1.93;1.83;;;;;;;18.49;48.11;99586.13;5052826;28;20180;-74
2020/12/08 03:26:30;;;;;;;1.80;1.70;;;;;;;18.47;48.16;99582.75;5052732;28;20179;-73
2020/12/08 03:28:57;;;;;;;1.73;1.63;;;;;;;18.44;48.36;99583.13;5069332;28;20196;-72
2020/12/08 03:31:23;;;;;;;2.13;2.03;;;;;;;18.42;48.08;99574.34;5069322;28;20575;-70
2020/12/08 03:33:49;;;;;;;1.93;1.83;;;;;;;18.38;48.25;99581.22;5070564;28;20183;-71
2020/12/08 03:36:18;;;;;;;1.90;1.80;;;;;;;18.30;47.97;99584.06;5054870;28;20179;-71
2020/12/08 03:38:45;;;;;;;2.10;2.00;;;;;;;18.27;48.24;99592.56;5056336;28;20211;-73
2020/12/08 03:41:16;;;;;;;2.10;2.00;;;;;;;18.28;48.50;99583.41;5056673;28;20292;-70
2020/12/08 03:43:42;;;;;;;2.00;1.90;;;;;;;18.30;48.31;99586.78;5073786;28;20191;-71
2020/12/08 03:46:08;;;;;;;2.10;2.00;;;;;;;18.31;48.32;99591.16;5057207;28;20186;-73
2020/12/08 03:48:35;;;;;;;2.20;2.00;;;;;;;18.31;47.94;99583.03;5056530;28;20195;-71
2020/12/08 03:51:01;;;;;;;2.00;1.90;;;;;;;18.31;48.04;99594.69;5073861;28;20199;-73
2020/12/08 03:53:27;;;;;;;1.97;1.87;;;;;;;18.32;48.12;99584.69;5039780;28;20184;-73
2020/12/08 03:55:53;;;;;;;2.00;1.90;;;;;;;18.33;48.42;99581.78;5072769;28;20732;-73
2020/12/08 03:58:19;;;;;;;1.93;1.83;;;;;;;18.34;47.98;99588.06;5055951;28;20318;-73
2020/12/08 04:00:45;;;;;;;1.90;1.80;;;;;;;18.32;48.46;99580.13;5072790;28;20188;-71
2020/12/08 04:03:11;;;;;;;1.93;1.83;;;;;;;18.33;48.30;99587.22;5056106;28;20180;-71
2020/12/08 04:05:37;;;;;;;1.80;1.70;;;;;;;18.32;48.50;99587.41;5072411;28;20190;-71
2020/12/08 04:08:03;;;;;;;1.97;1.87;;;;;;;18.32;48.53;99590.13;5056001;28;20207;-72
2020/12/08 04:10:29;;;;;;;2.10;2.00;;;;;;;18.31;48.55;99583.03;5072548;28;20236;-74
2020/12/08 04:12:55;;;;;;;1.80;1.70;;;;;;;18.28;48.08;99589.66;5072612;28;20183;-73
2020/12/08 04:15:21;;;;;;;1.90;1.80;;;;;;;18.28;48.47;99595.09;5072539;28;20223;-73
2020/12/08 04:17:47;;;;;;;2.00;1.90;;;;;;;18.29;48.21;99588.63;5072415;28;20219;-73
2020/12/08 04:20:13;;;;;;;2.10;2.00;;;;;;;18.31;48.35;99583.03;5072331;28;20686;-70
2020/12/08 04:22:39;;;;;;;2.00;1.90;;;;;;;18.35;48.44;99589.72;5055847;28;20184;-74
2020/12/08 04:25:05;;;;;;;1.93;1.83;;;;;;;18.19;48.49;99555.59;5055578;28;20195;-71
2020/12/08 04:27:31;;;;;;;2.17;2.07;;;;;;;18.43;48.19;99586.88;5073190;28;20677;-71
2020/12/08 04:29:58;;;;;;;1.90;1.80;;;;;;;18.45;48.05;99594.81;5039527;28;20278;-71
2020/12/08 04:32:24;;;;;;;1.70;1.60;;;;;;;18.47;48.15;99593.59;5055834;28;20188;-71
2020/12/08 04:34:50;;;;;;;1.63;1.53;;;;;;;18.49;48.20;99588.81;5073201;28;20270;-71
2020/12/08 04:37:16;;;;;;;1.87;1.77;;;;;;;18.49;47.77;99586.13;5073568;28;20639;-73
2020/12/08 04:39:42;;;;;;;2.03;1.93;;;;;;;18.49;48.31;99585.28;5072082;28;20183;-73
2020/12/08 04:42:08;;;;;;;1.87;1.77;;;;;;;18.48;47.86;99592.56;5072301;28;20190;-71
2020/12/08 04:44:34;;;;;;;2.00;1.90;;;;;;;18.45;48.21;99592.94;5038921;28;20195;-74
2020/12/08 04:47:00;;;;;;;1.90;1.80;;;;;;;18.39;47.84;99593.72;5054417;28;20191;-74
2020/12/08 04:49:26;;;;;;;1.90;1.80;;;;;;;18.37;47.93;99601.19;5055300;28;20602;-74
2020/12/08 04:51:52;;;;;;;2.10;2.00;;;;;;;18.38;47.79;99601.00;5038679;28;20192;-74
2020/12/08 04:54:18;;;;;;;2.00;1.90;;;;;;;18.40;48.10;99603.53;5071834;28;20187;-74
2020/12/08 04:56:47;;;;;;;2.00;1.90;;;;;;;18.41;47.97;99591.66;5055224;28;20275;-74
2020/12/08 04:59:20;;;;;;;2.00;1.90;;;;;;;18.42;48.01;99587.91;5055160;28;20234;-72
2020/12/08 05:01:46;;;;;;;1.80;1.70;;;;;;;18.41;48.14;99594.34;5055357;28;20299;-72
2020/12/08 05:04:20;;;;;;;1.97;1.87;;;;;;;18.41;48.23;99597.06;5055043;28;20607;-73
2020/12/08 05:06:47;;;;;;;2.00;1.90;;;;;;;18.42;47.94;99596.88;5072343;28;20233;-73
2020/12/08 05:09:13;;;;;;;2.00;1.90;;;;;;;18.44;48.08;99601.25;5071655;28;20296;-73
2020/12/08 05:11:39;;;;;;;2.13;2.03;;;;;;;18.41;48.35;99597.06;5054979;28;20198;-72
2020/12/08 05:14:06;;;;;;;2.10;2.00;;;;;;;18.42;47.88;99601.44;5054854;28;20245;-72
2020/12/08 05:16:32;;;;;;;1.93;1.83;;;;;;;18.40;48.15;99600.81;5038313;28;20515;-73
2020/12/08 05:19:05;;;;;;;1.80;1.70;;;;;;;18.37;48.21;99606.63;5071471;28;20647;-73
2020/12/08 05:21:32;;;;;;;2.10;2.00;;;;;;;18.34;48.04;99604.31;5071502;28;20187;-72
2020/12/08 05:23:58;;;;;;;2.20;2.10;;;;;;;18.31;48.19;99605.53;5054767;28;20191;-72
2020/12/08 05:26:24;;;;;;;2.03;1.93;;;;;;;18.29;48.11;99604.06;5054476;28;20198;-70
2020/12/08 05:28:58;;;;;;;1.93;1.83;;;;;;;18.25;47.99;99605.47;5054555;28;20202;-70
2020/12/08 05:31:26;;;;;;;2.00;1.90;;;;;;;18.20;48.23;99597.06;5054731;28;20188;-71
2020/12/08 05:33:53;;;;;;;1.83;1.73;;;;;;;18.18;48.37;99599.13;5071187;28;20191;-70
2020/12/08 05:36:19;;;;;;;1.83;1.70;;;;;;;18.14;47.95;99593.25;5038059;28;20183;-70
2020/12/08 05:38:46;;;;;;;2.20;2.10;;;;;;;18.12;47.94;99605.31;5054303;28;20219;-72
2020/12/08 05:41:12;;;;;;;2.20;2.10;;;;;;;18.08;48.33;99605.72;5037827;28;20194;-70
2020/12/08 05:43:39;;;;;;;2.10;2.00;;;;;;;18.06;48.36;99602.38;5070968;28;20838;-72
2020/12/08 05:46:06;;;;;;;1.90;1.80;;;;;;;18.04;48.20;99609.84;5054232;28;20188;-70
2020/12/08 05:48:32;;;;;;;2.13;2.03;;;;;;;18.05;48.11;99611.53;5054043;28;20203;-70
2020/12/08 05:51:01;;;;;;;1.90;1.80;;;;;;;18.08;48.31;99608.41;5037343;28;20204;-70
2020/12/08 05:53:27;;;;;;;2.10;2.00;;;;;;;18.14;48.28;99614.09;5054246;28;20187;-72
2020/12/08 05:56:05;;;;;;;1.87;1.77;;;;;;;18.23;48.27;99607.53;5070777;28;20184;-70
2020/12/08 05:58:31;;;;;;;1.70;1.60;;;;;;;18.30;48.52;99611.16;5037779;28;20246;-72
2020/12/08 06:01:05;;;;;;;1.97;1.87;;;;;;;18.38;48.47;99611.84;5037296;28;20188;-72
2020/12/08 06:03:31;;;;;;;1.80;1.70;;;;;;;18.45;48.16;99611.91;5037887;28;20650;-72
2020/12/08 06:06:10;;;;;;;1.90;1.80;;;;;;;18.53;48.05;99617.19;5037475;28;20276;-70
2020/12/08 06:08:45;;;;;;;2.10;2.00;;;;;;;18.62;48.30;99620.59;5037621;28;20210;-70
2020/12/08 06:11:15;;;;;;;1.90;1.80;;;;;;;18.67;48.03;99620.88;5053973;28;20721;-72
2020/12/08 06:13:48;;;;;;;2.00;1.90;;;;;;;18.71;48.20;99627.63;5070386;28;20256;-72
2020/12/08 06:16:21;;;;;;;2.10;2.00;;;;;;;18.73;48.04;99624.72;5054533;28;20184;-72
2020/12/08 06:18:48;;;;;;;1.90;1.80;;;;;;;18.75;47.87;99617.22;5053877;28;20687;-72
2020/12/08 06:21:40;;;;;;;1.90;1.80;;;;;;;18.76;48.09;99629.72;5070325;28;20183;-72
2020/12/08 06:24:06;;;;;;;1.70;1.60;;;;;;;18.74;47.71;99626.38;5068425;28;20635;-72
2020/12/08 06:26:40;;;;;;;2.10;2.00;;;;;;;18.70;47.99;99626.78;5070395;28;20180;-72
2020/12/08 06:29:10;;;;;;;2.10;2.00;;;;;;;18.69;47.96;99629.66;5070200;28;20261;-73
2020/12/08 06:31:46;;;;;;;1.80;1.70;;;;;;;18.65;47.85;99631.91;5053516;28;20540;-73
2020/12/08 06:34:25;;;;;;;2.17;2.07;;;;;;;18.60;47.74;99637.06;5053310;28;20175;-70
2020/12/08 06:36:54;;;;;;;2.30;2.10;;;;;;;18.53;48.29;99636.19;5071458;28;20266;-73
2020/12/08 06:39:21;;;;;;;1.90;1.80;;;;;;;18.49;47.81;99634.88;5037476;28;20195;-73
2020/12/08 06:41:47;;;;;;;1.90;1.80;;;;;;;18.45;47.67;99633.56;5053476;28;20270;-73
2020/12/08 06:44:14;;;;;;;2.00;1.90;;;;;;;18.38;47.96;99628.09;5070152;28;20179;-70
2020/12/08 06:46:51;;;;;;;1.97;1.87;;;;;;;18.34;48.07;99636.81;5069953;28;20211;-70
2020/12/08 06:49:17;;;;;;;2.27;2.07;;;;;;;18.33;47.87;99637.84;5036328;28;20201;-69
2020/12/08 06:51:43;;;;;;;1.90;1.80;;;;;;;18.32;47.71;99633.47;5070796;28;20254;-69
2020/12/08 06:54:15;;;;;;;2.20;2.10;;;;;;;18.33;47.68;99641.38;5069913;28;20535;-70
2020/12/08 06:56:41;;;;;;;1.97;1.87;;;;;;;18.33;47.67;99635.13;5053127;28;20631;-72
2020/12/08 06:59:08;;;;;;;2.00;1.90;;;;;;;18.34;47.63;99636.81;5052845;28;20211;-72
2020/12/08 07:01:35;;;;;;;2.00;1.90;;;;;;;18.34;47.98;99639.53;5069759;28;20194;-72
2020/12/08 07:04:01;;;;;;;2.17;2.03;;;;;;;18.34;48.16;99650.34;5069854;28;20202;-73
2020/12/08 07:06:27;;;;;;;2.07;1.97;;;;;;;18.33;47.98;99646.81;5053153;28;20365;-72
2020/12/08 07:08:54;;;;;;;2.00;1.90;;;;;;;18.32;48.30;99647.00;5069764;28;20607;-72
2020/12/08 07:11:21;;;;;;;1.97;1.87;;;;;;;18.32;47.93;99655.13;5069117;28;20188;-72
2020/12/08 07:13:54;;;;;;;1.73;1.63;;;;;;;18.31;48.09;99656.16;5069487;28;20179;-72
2020/12/08 07:16:20;;;;;;;1.90;1.80;;;;;;;18.31;48.30;99659.72;5069427;28;20249;-72
2020/12/08 07:18:47;;;;;;;1.90;1.80;;;;;;;18.29;48.03;99661.78;5036015;28;20211;-72
2020/12/08 07:21:13;;;;;;;1.90;1.80;;;;;;;18.28;47.96;99665.50;5052999;28;20180;-72
2020/12/08 07:23:40;;;;;;;2.60;2.00;;;;;;;18.26;48.48;99673.00;5069536;28;20263;-72
2020/12/08 07:26:07;;;;;;;2.10;2.00;;;;;;;18.27;48.14;99679.25;5052741;28;20223;-72
2020/12/08 07:28:33;;;;;;;1.90;1.80;;;;;;;18.24;48.13;99679.63;5069409;28;20226;-72
2020/12/08 07:30:59;;;;;;;1.93;1.83;;;;;;;18.19;47.95;99682.91;5069656;28;20590;-72
2020/12/08 07:33:31;;;;;;;1.70;1.60;;;;;;;18.17;48.37;99684.13;5036450;28;20183;-70
2020/12/08 07:35:57;;;;;;;2.00;1.90;;;;;;;18.14;48.00;99677.22;5052862;28;20188;-70
2020/12/08 07:38:23;;;;;;;2.00;1.90;;;;;;;18.09;48.02;99680.50;5069237;28;20611;-70
2020/12/08 07:40:49;;;;;;;1.80;1.70;;;;;;;18.06;48.28;99682.75;5069394;28;20183;-70
2020/12/08 07:43:16;;;;;;;2.00;1.90;;;;;;;18.02;48.36;99687.72;5070370;28;20194;-70
2020/12/08 07:45:43;;;;;;;1.80;1.70;;;;;;;18.00;48.14;99684.38;5070516;28;20180;-70
2020/12/08 07:48:15;;;;;;;1.80;1.70;;;;;;;17.99;48.35;99693.50;5069454;28;20187;-71
2020/12/08 07:50:41;;;;;;;1.97;1.87;;;;;;;18.01;48.31;99696.88;5053411;28;20195;-68
2020/12/08 07:53:08;;;;;;;2.60;2.40;;;;;;;18.04;48.30;99703.78;5070223;28;20183;-70
2020/12/08 07:55:39;;;;;;;2.80;2.60;;;;;;;18.06;48.82;99699.84;5069165;28;20515;-70
2020/12/08 07:58:05;;;;;;;2.80;2.60;;;;;;;18.14;48.50;99695.34;5068861;28;20203;-70
2020/12/08 08:00:31;;;;;;;2.60;2.40;;;;;;;18.21;48.62;99696.25;5069055;28;20674;-69
2020/12/08 08:02:57;;;;;;;2.97;2.77;;;;;;;18.30;48.31;99703.25;5068972;28;20266;-70
2020/12/08 08:05:23;;;;;;;2.40;2.20;;;;;;;18.40;48.47;99706.47;5068772;28;20619;-70
2020/12/08 08:07:49;;;;;;;2.90;2.60;;;;;;;18.48;48.43;99709.09;5068331;28;20203;-66
2020/12/08 08:10:15;;;;;;;2.60;2.40;;;;;;;18.57;48.20;99707.06;5068433;28;20608;-66
2020/12/08 08:12:41;;;;;;;2.53;2.33;;;;;;;18.64;47.91;99708.84;5052685;28;20179;-66
2020/12/08 08:15:07;;;;;;;2.60;2.40;;;;;;;18.72;47.85;99713.31;5035991;28;20257;-71
2020/12/08 08:17:34;;;;;;;2.63;2.43;;;;;;;18.78;48.03;99709.00;5052259;28;20315;-69
2020/12/08 08:20:00;;;;;;;2.20;2.10;;;;;;;18.81;47.67;99704.00;5052528;28;20187;-71
2020/12/08 08:22:26;;;;;;;2.40;2.20;;;;;;;18.83;47.74;99712.78;5069583;28;20245;-71
2020/12/08 08:24:52;;;;;;;2.30;2.20;;;;;;;18.85;47.76;99720.72;5072459;28;20201;-71
2020/12/08 08:27:19;;;;;;;2.60;2.40;;;;;;;18.85;47.98;99712.59;5055887;28;20203;-71
2020/12/08 08:29:45;;;;;;;2.60;2.40;;;;;;;18.82;48.01;99707.56;5039458;28;20234;-71
2020/12/08 08:32:11;;;;;;;2.50;2.30;;;;;;;18.82;47.71;99713.00;5072595;28;20624;-71
2020/12/08 08:34:37;;;;;;;2.57;2.37;;;;;;;18.78;47.45;99714.41;5056093;28;20498;-71
2020/12/08 08:37:03;;;;;;;2.30;2.20;;;;;;;18.74;47.56;99707.72;5073111;28;20242;-71
2020/12/08 08:39:30;;;;;;;2.00;1.90;;;;;;;18.68;47.59;99710.13;5072257;28;20704;-71
2020/12/08 08:41:56;;;;;;;2.30;2.00;;;;;;;18.65;47.71;99715.09;5072199;28;20192;-71
2020/12/08 08:44:22;;;;;;;2.50;2.40;;;;;;;18.60;47.48;99714.81;5055329;28;20262;-71
2020/12/08 08:46:48;;;;;;;2.40;2.20;;;;;;;18.55;47.61;99714.56;5038758;28;20638;-71
2020/12/08 08:49:14;;;;;;;2.23;2.03;;;;;;;18.49;47.58;99718.88;5055335;28;20222;-71
2020/12/08 08:51:47;;;;;;;2.60;2.40;;;;;;;18.42;47.68;99720.66;5055444;28;20272;-71
2020/12/08 08:54:14;;;;;;;2.60;2.40;;;;;;;18.36;47.60;99713.31;5072059;28;20701;-72
2020/12/08 08:56:40;;;;;;;2.23;2.13;;;;;;;18.28;47.92;99718.84;5038674;28;20195;-71
2020/12/08 08:59:07;;;;;;;2.33;2.13;;;;;;;18.22;47.69;99714.22;5072578;28;20200;-71
2020/12/08 09:01:33;;;;;;;2.10;2.00;;;;;;;18.22;47.94;99722.34;5038365;28;20244;-75
2020/12/08 09:03:59;;;;;;;2.50;2.30;;;;;;;18.26;48.03;99731.75;5055135;28;20191;-75
2020/12/08 09:06:25;;;;;;;2.33;2.20;;;;;;;18.26;48.18;99726.34;5055125;28;20733;-75
2020/12/08 09:08:52;;;;;;;1.90;1.80;;;;;;;18.27;48.27;99730.72;5071576;28;20195;-70
2020/12/08 09:11:18;;;;;;;2.07;1.97;;;;;;;18.28;47.68;99733.22;5071730;28;20199;-70
2020/12/08 09:13:44;;;;;;;2.00;1.90;;;;;;;18.27;47.88;99728.84;5038352;28;20192;-70
2020/12/08 09:16:11;;;;;;;2.10;2.00;;;;;;;18.26;48.07;99735.31;5071799;28;20184;-70
2020/12/08 09:18:37;;;;;;;2.07;1.90;;;;;;;18.24;48.09;99733.81;5055147;28;20211;-70
2020/12/08 09:21:03;;;;;;;2.00;1.90;;;;;;;18.25;47.90;99735.50;5071717;28;20600;-70
2020/12/08 09:23:29;;;;;;;2.20;2.10;;;;;;;18.25;48.01;99735.50;5071449;28;20793;-70
2020/12/08 09:25:57;;;;;;;2.00;1.90;;;;;;;18.25;47.78;99736.31;5055073;28;20686;-71
2020/12/08 09:28:24;;;;;;;2.10;2.00;;;;;;;18.25;48.05;99733.63;5055101;28;20210;-71
2020/12/08 09:30:50;;;;;;;2.20;2.10;;;;;;;18.25;48.21;99736.31;5054730;28;20187;-76
2020/12/08 09:33:16;;;;;;;2.10;2.00;;;;;;;18.25;47.97;99738.19;5070662;28;20241;-74
2020/12/08 09:35:43;;;;;;;2.07;1.97;;;;;;;18.23;47.94;99740.25;5054799;28;20222;-74
2020/12/08 09:38:09;;;;;;;2.00;1.90;;;;;;;18.21;48.24;99745.00;5054321;28;20225;-74
2020/12/08 09:40:36;;;;;;;1.67;1.57;;;;;;;18.19;48.01;99744.34;5071116;28;20240;-74
2020/12/08 09:43:02;;;;;;;1.87;1.77;;;;;;;18.15;47.99;99741.19;5054633;28;20266;-73
2020/12/08 09:45:29;;;;;;;1.83;1.73;;;;;;;18.14;48.19;99749.50;5054591;28;20207;-75
2020/12/08 09:47:55;;;;;;;1.93;1.83;;;;;;;18.11;48.38;99748.00;5054289;28;20199;-75
2020/12/08 09:50:21;;;;;;;1.90;1.80;;;;;;;18.05;48.25;99746.06;5070731;28;20199;-66
2020/12/08 09:52:47;;;;;;;1.90;1.80;;;;;;;18.02;48.22;99747.28;5070919;28;20636;-70
2020/12/08 09:55:13;;;;;;;2.07;1.97;;;;;;;18.01;47.83;99748.31;5070788;28;20274;-70
2020/12/08 09:57:40;;;;;;;2.00;1.90;;;;;;;17.98;48.31;99746.00;5070540;28;20295;-70
2020/12/08 10:00:07;;;;;;;1.93;1.83;;;;;;;17.97;48.51;99752.41;5071612;28;20199;-75
2020/12/08 10:02:33;;;;;;;1.90;1.80;;;;;;;17.98;48.38;99746.00;5037487;28;20188;-70
2020/12/08 10:04:59;;;;;;;1.90;1.80;;;;;;;18.03;48.41;99748.97;5037718;28;20195;-70
2020/12/08 10:07:25;;;;;;;1.93;1.83;;;;;;;18.12;48.38;99754.28;5070593;28;20211;-71
2020/12/08 10:09:51;;;;;;;1.90;1.80;;;;;;;18.19;48.07;99755.19;5053967;28;20191;-71
2020/12/08 10:12:17;;;;;;;1.90;1.80;;;;;;;18.28;48.43;99757.63;5070514;28;20675;-67
2020/12/08 10:14:44;;;;;;;1.80;1.70;;;;;;;18.36;48.07;99753.94;5053885;28;20190;-67
2020/12/08 10:17:11;;;;;;;1.90;1.80;;;;;;;18.45;48.17;99755.50;5053503;28;20239;-66
2020/12/08 10:19:38;;;;;;;1.87;1.77;;;;;;;18.52;48.09;99751.03;5053732;28;20188;-72
2020/12/08 10:22:04;;;;;;;1.83;1.73;;;;;;;18.59;48.04;99738.38;5070203;28;20187;-71
2020/12/08 10:24:30;;;;;;;1.67;1.57;;;;;;;18.66;47.65;99750.16;5071380;28;20241;-72
2020/12/08 10:26:57;;;;;;;1.70;1.60;;;;;;;18.69;47.53;99744.38;5071003;28;20270;-66
2020/12/08 10:29:23;;;;;;;1.83;1.73;;;;;;;18.69;47.89;99741.66;5070140;28;20179;-67
2020/12/08 10:31:52;;;;;;;1.77;1.67;;;;;;;18.73;47.65;99743.97;5053446;28;20328;-72
2020/12/08 10:34:19;;;;;;;1.67;1.57;;;;;;;18.70;47.83;99740.63;5053563;28;20191;-72
2020/12/08 10:36:45;;;;;;;1.57;1.47;;;;;;;18.69;47.87;99755.22;5053381;28;20267;-72
2020/12/08 10:39:12;;;;;;;1.90;1.80;;;;;;;18.68;47.36;99753.50;5070747;28;20245;-72
2020/12/08 10:41:38;;;;;;;1.60;1.50;;;;;;;18.63;47.87;99749.69;5036636;28;20264;-67
2020/12/08 10:44:06;;;;;;;1.57;1.47;;;;;;;18.59;47.57;99749.22;5036684;28;20248;-67
2020/12/08 10:46:36;;;;;;;1.80;1.70;;;;;;;18.56;47.47;99748.75;5070343;28;20670;-70
2020/12/08 10:49:03;;;;;;;1.93;1.83;;;;;;;18.50;47.81;99744.97;5037069;28;20203;-70
2020/12/08 10:51:29;;;;;;;1.97;1.87;;;;;;;18.46;47.86;99746.38;5070001;28;20191;-70
2020/12/08 10:53:55;;;;;;;1.60;1.50;;;;;;;18.39;47.97;99743.56;5053320;28;20309;-70
2020/12/08 10:56:21;;;;;;;1.83;1.73;;;;;;;18.33;47.76;99748.91;5069705;28;20244;-69
2020/12/08 10:58:48;;;;;;;1.60;1.50;;;;;;;18.29;47.58;99742.19;5036395;28;20568;-66
2020/12/08 11:01:25;;;;;;;1.80;1.70;;;;;;;18.25;48.00;99746.31;5053425;28;20244;-66
2020/12/08 11:03:51;;;;;;;1.60;1.50;;;;;;;18.28;47.77;99745.94;5053137;28;20652;-70
2020/12/08 11:06:21;;;;;;;2.00;1.80;;;;;;;18.30;48.04;99746.59;5069870;28;20179;-66
2020/12/08 11:08:47;;;;;;;1.70;1.60;;;;;;;18.31;47.86;99740.13;5069661;28;20663;-66
2020/12/08 11:11:21;;;;;;;1.50;1.40;;;;;;;18.32;47.66;99739.09;5069582;28;20204;-66
2020/12/08 11:13:47;;;;;;;1.40;1.30;;;;;;;18.31;47.90;99740.97;5054007;28;20492;-70
2020/12/08 11:16:14;;;;;;;1.63;1.53;;;;;;;18.32;48.03;99739.09;5036325;28;20187;-69
2020/12/08 11:18:40;;;;;;;1.70;1.60;;;;;;;18.31;48.08;99730.16;5069271;28;20214;-70
2020/12/08 11:21:06;;;;;;;1.80;1.70;;;;;;;18.30;48.13;99727.63;5052701;28;20281;-70
2020/12/08 11:23:32;;;;;;;1.60;1.50;;;;;;;18.28;47.96;99730.53;5052745;28;20191;-70
2020/12/08 11:25:58;;;;;;;1.40;1.30;;;;;;;18.27;48.14;99734.25;5069882;28;20183;-70
2020/12/08 11:28:24;;;;;;;1.50;1.40;;;;;;;18.29;48.22;99726.78;5071155;28;20191;-70
2020/12/08 11:30:50;;;;;;;1.53;1.43;;;;;;;18.35;47.82;99719.75;5069908;28;20795;-67
2020/12/08 11:33:18;;;;;;;1.53;1.43;;;;;;;18.37;48.32;99718.53;5036408;28;20187;-70